Time;durP1;ratioP1;P1;durP2;ratioP2;P2;SDS_P1;SDS_P2;PMS_P1;PMS_P2;Temp;Humidity;BMP_temperature;BMP_pressure;BME280_temperature;BME280_humidity;BME280_pressure;Samples;Min_cycle;Max_cycle;Signal;HPM_P1;HPM_P2
2022/05/21 00:00:29;;;;;;;5.50;2.65;;;;;;;13.58;52.06;99351.76;1717462;83;21004;-83
2022/05/21 00:02:57;;;;;;;5.50;2.10;;;;;;;13.53;53.66;99339.32;1715857;84;21119;-85
2022/05/21 00:05:27;;;;;;;9.03;2.70;;;;;;;13.51;54.25;99343.28;1688857;85;21035;-85
2022/05/21 00:07:54;;;;;;;5.70;2.20;;;;;;;13.48;55.08;99331.61;1706763;84;21048;-85
2022/05/21 00:10:23;;;;;;;7.30;2.60;;;;;;;13.43;56.31;99330.94;1706671;84;21011;-84
2022/05/21 00:12:50;;;;;;;10.90;2.52;;;;;;;13.37;54.05;99332.87;1700086;84;21003;-85
2022/05/21 00:15:21;;;;;;;7.25;2.95;;;;;;;13.27;53.67;99327.94;1710319;84;21048;-84
2022/05/21 00:17:49;;;;;;;5.67;2.55;;;;;;;13.21;54.06;99329.44;1700137;84;21023;-85
2022/05/21 00:23:12;;;;;;;8.03;2.87;;;;;;;13.04;54.89;99309.08;1709961;84;21107;-86
2022/05/21 00:25:41;;;;;;;4.90;2.40;;;;;;;12.99;54.51;99312.73;1704536;83;21071;-85
2022/05/21 00:28:08;;;;;;;11.80;2.75;;;;;;;12.94;54.87;99307.67;1699714;84;21041;-86
2022/05/21 00:30:35;;;;;;;6.35;2.83;;;;;;;12.92;55.50;99304.25;1714977;84;21020;-85
2022/05/21 00:33:03;;;;;;;6.53;2.70;;;;;;;12.91;55.97;99300.80;1717404;84;21031;-86
2022/05/21 00:35:30;;;;;;;13.70;2.65;;;;;;;12.92;55.63;99306.41;1717526;84;21068;-86
2022/05/21 00:37:56;;;;;;;8.18;2.87;;;;;;;12.92;55.29;99312.93;1706230;84;21047;-85
2022/05/21 00:40:23;;;;;;;10.38;2.70;;;;;;;12.90;55.33;99304.30;1688850;85;21079;-85
2022/05/21 00:42:50;;;;;;;6.28;2.62;;;;;;;12.89;54.72;99303.91;1696684;84;21046;-86
2022/05/21 00:45:18;;;;;;;8.13;2.47;;;;;;;12.88;55.38;99297.42;1708593;83;21083;-86
2022/05/21 00:47:44;;;;;;;4.70;2.25;;;;;;;12.86;54.88;99300.08;1712019;84;20980;-85
2022/05/21 00:50:14;;;;;;;4.90;2.60;;;;;;;12.80;56.54;99288.53;1697950;84;21012;-84
2022/05/21 00:52:42;;;;;;;5.40;2.30;;;;;;;12.77;56.12;99292.98;1715181;84;20956;-86
2022/05/21 00:55:14;;;;;;;6.20;2.27;;;;;;;12.74;56.08;99292.63;1717514;83;21068;-86
2022/05/21 00:59:47;;;;;;;8.13;2.72;;;;;;;12.70;56.53;99293.63;1702240;84;20984;-85
2022/05/21 01:00:22;;;;;;;6.85;2.50;;;;;;;12.64;58.38;99303.80;1681827;84;21049;-84
2022/05/21 01:02:53;;;;;;;5.78;2.37;;;;;;;12.55;56.64;99300.15;1700554;84;20995;-85
2022/05/21 01:05:24;;;;;;;4.28;2.40;;;;;;;12.51;58.41;99297.23;1700176;84;21036;-85
2022/05/21 01:07:58;;;;;;;8.88;2.65;;;;;;;12.50;59.33;99298.99;1700197;84;21026;-86
2022/05/21 01:10:29;;;;;;;5.00;2.72;;;;;;;12.49;57.27;99307.73;1699954;84;21094;-85
2022/05/21 01:12:57;;;;;;;4.72;1.87;;;;;;;12.48;58.63;99296.88;1710697;84;21016;-84
2022/05/21 01:15:32;;;;;;;5.62;2.12;;;;;;;12.46;58.79;99295.23;1709540;84;20981;-85
2022/05/21 01:17:59;;;;;;;5.08;2.40;;;;;;;12.45;58.39;99296.95;1713688;84;20979;-86
2022/05/21 01:20:46;;;;;;;5.35;2.27;;;;;;;12.43;59.11;99300.06;1717430;84;20993;-84
2022/05/21 01:23:15;;;;;;;6.58;2.17;;;;;;;12.40;59.83;99302.77;1714428;82;21049;-84
2022/05/21 01:25:45;;;;;;;5.33;2.37;;;;;;;12.38;60.30;99301.97;1700755;83;21012;-84
2022/05/21 01:28:17;;;;;;;3.83;2.20;;;;;;;12.37;59.76;99298.94;1711490;83;21019;-84
2022/05/21 01:30:47;;;;;;;6.10;2.33;;;;;;;12.38;60.71;99307.64;1700710;83;20961;-85
2022/05/21 01:33:18;;;;;;;7.17;2.30;;;;;;;12.35;61.21;99308.56;1707919;83;21038;-84
2022/05/21 01:35:46;;;;;;;5.78;2.35;;;;;;;12.32;60.51;99312.58;1721997;83;21063;-85
2022/05/21 01:38:17;;;;;;;5.42;2.40;;;;;;;12.28;60.01;99310.95;1728309;83;21068;-85
2022/05/21 01:40:44;;;;;;;4.90;2.33;;;;;;;12.20;59.98;99315.08;1721433;83;21508;-85
2022/05/21 01:45:57;;;;;;;6.35;2.60;;;;;;;12.13;59.79;99313.53;1730237;83;20985;-85
2022/05/21 01:48:27;;;;;;;9.20;2.33;;;;;;;12.09;59.57;99321.88;1719756;83;21015;-85
2022/05/21 01:50:55;;;;;;;5.60;2.60;;;;;;;12.05;59.85;99311.59;1728643;83;21008;-84
2022/05/21 01:53:24;;;;;;;4.42;2.20;;;;;;;12.01;62.28;99306.91;1716810;83;21005;-84
2022/05/21 01:55:51;;;;;;;5.22;2.62;;;;;;;11.98;61.38;99309.61;1701694;83;21073;-85
2022/05/21 01:58:19;;;;;;;5.75;2.50;;;;;;;11.98;62.92;99308.73;1757909;81;20983;-84
2022/05/21 02:00:46;;;;;;;4.72;2.20;;;;;;;11.98;61.41;99308.31;1759408;81;21043;-85
2022/05/21 02:03:15;;;;;;;5.87;2.22;;;;;;;11.95;62.42;99299.26;1759255;82;20976;-84
2022/05/21 02:05:45;;;;;;;7.65;2.42;;;;;;;11.92;62.82;99296.30;1755087;82;21027;-85
2022/05/21 02:08:14;;;;;;;6.28;1.98;;;;;;;11.89;62.44;99290.31;1758856;82;20984;-85
2022/05/21 02:10:42;;;;;;;5.45;2.20;;;;;;;11.85;63.55;99287.35;1758275;82;20988;-85
2022/05/21 02:13:23;;;;;;;4.25;2.02;;;;;;;11.82;63.70;99273.12;1753792;81;21009;-85
2022/05/21 02:15:49;;;;;;;7.05;2.00;;;;;;;11.81;63.95;99264.89;1739447;81;21007;-84
2022/05/21 02:18:16;;;;;;;4.35;2.20;;;;;;;11.80;64.92;99251.02;1758228;82;21012;-84
2022/05/21 02:20:43;;;;;;;5.85;2.60;;;;;;;11.80;64.51;99247.11;1755114;81;21015;-84
2022/05/21 02:23:11;;;;;;;6.83;2.30;;;;;;;11.80;64.48;99243.20;1752991;81;21063;-84
2022/05/21 02:25:38;;;;;;;8.28;2.30;;;;;;;11.78;63.77;99230.67;1759651;81;21435;-85
2022/05/21 02:28:06;;;;;;;5.53;2.60;;;;;;;11.74;63.30;99227.30;1748403;81;20997;-84
2022/05/21 02:30:34;;;;;;;8.33;2.40;;;;;;;11.72;64.32;99225.18;1760137;81;21042;-84
2022/05/21 02:33:00;;;;;;;4.83;2.27;;;;;;;11.66;64.78;99226.66;1763524;81;20949;-85
2022/05/21 02:35:27;;;;;;;4.83;2.52;;;;;;;11.64;65.09;99214.13;1764741;81;21039;-84
2022/05/21 02:40:39;;;;;;;4.10;2.02;;;;;;;11.54;66.57;99209.61;1764721;81;20955;-82
2022/05/21 02:43:05;;;;;;;6.87;3.47;;;;;;;11.52;63.53;99211.86;1762725;81;21043;-84
2022/05/21 02:45:32;;;;;;;4.85;2.40;;;;;;;11.39;66.97;99226.09;1743156;81;20957;-85
2022/05/21 02:47:59;;;;;;;8.65;2.15;;;;;;;11.34;64.65;99232.27;1753983;82;21015;-85
2022/05/21 02:50:33;;;;;;;7.70;2.45;;;;;;;11.30;66.19;99229.34;1759356;82;21011;-85
2022/05/21 02:53:06;;;;;;;4.17;2.27;;;;;;;11.28;65.44;99220.72;1765104;81;20995;-85
2022/05/21 02:55:33;;;;;;;5.33;2.33;;;;;;;11.28;65.54;99218.12;1763936;81;21371;-84
2022/05/21 02:58:00;;;;;;;9.20;2.33;;;;;;;11.30;67.17;99220.23;1763981;81;21078;-85
2022/05/21 03:00:31;;;;;;;6.85;2.42;;;;;;;11.31;66.28;99222.38;1765481;81;21037;-86
2022/05/21 03:02:59;;;;;;;4.83;2.30;;;;;;;11.34;66.03;99232.27;1765129;81;21000;-84
2022/05/21 03:05:31;;;;;;;6.25;2.25;;;;;;;11.38;65.87;99236.95;1764702;81;21059;-83
2022/05/21 03:08:00;;;;;;;4.50;2.25;;;;;;;11.42;64.87;99246.81;1749937;81;21023;-84
2022/05/21 03:10:30;;;;;;;8.00;2.70;;;;;;;11.46;65.12;99246.72;1761866;81;21058;-84
2022/05/21 03:13:02;;;;;;;8.15;2.87;;;;;;;11.55;65.85;99258.62;1763634;81;20960;-84
2022/05/21 03:15:33;;;;;;;7.50;2.62;;;;;;;11.61;65.58;99253.70;1764787;81;21032;-85
2022/05/21 03:18:03;;;;;;;6.65;2.70;;;;;;;11.69;65.25;99237.42;1762258;81;21043;-84
2022/05/21 03:20:30;;;;;;;5.92;2.50;;;;;;;11.73;64.91;99241.20;1764265;81;21494;-85
2022/05/21 03:22:56;;;;;;;6.42;2.62;;;;;;;11.77;63.21;99230.70;1746666;81;21102;-85
2022/05/21 03:25:23;;;;;;;8.25;2.77;;;;;;;11.73;63.69;99236.44;1753849;81;21031;-84
2022/05/21 03:27:51;;;;;;;9.83;2.80;;;;;;;11.75;63.26;99233.34;1720865;83;21027;-85
2022/05/21 03:30:22;;;;;;;5.95;2.17;;;;;;;11.76;64.65;99219.45;1713357;83;20986;-83
2022/05/21 03:32:49;;;;;;;5.30;2.50;;;;;;;11.74;65.26;99225.99;1712826;84;20982;-84
2022/05/21 03:35:17;;;;;;;5.35;2.58;;;;;;;11.70;62.99;99221.77;1709774;82;21008;-84
2022/05/21 03:37:45;;;;;;;5.67;2.42;;;;;;;11.70;63.73;99213.11;1730181;83;21048;-85
2022/05/21 03:40:16;;;;;;;6.87;2.35;;;;;;;11.69;63.14;99217.44;1724324;83;21012;-84
2022/05/21 03:42:43;;;;;;;8.18;2.27;;;;;;;11.68;64.48;99223.56;1719928;84;21040;-85
2022/05/21 03:45:11;;;;;;;5.50;2.58;;;;;;;11.70;64.08;99215.25;1719782;84;21052;-85
2022/05/21 03:47:38;;;;;;;7.37;2.52;;;;;;;11.71;64.75;99211.73;1701771;83;20984;-85
2022/05/21 03:50:06;;;;;;;4.40;2.22;;;;;;;11.77;63.85;99218.53;1730788;83;21055;-85
2022/05/21 03:52:33;;;;;;;8.98;2.70;;;;;;;11.80;63.58;99217.58;1702745;83;20993;-85
2022/05/21 03:54:59;;;;;;;8.25;2.62;;;;;;;11.82;65.90;99224.48;1706568;83;21775;-85
2022/05/21 03:57:26;;;;;;;5.35;2.60;;;;;;;11.83;64.21;99225.33;1720034;83;21012;-85
2022/05/21 03:59:54;;;;;;;5.08;2.20;;;;;;;11.86;66.29;99229.16;1730067;83;21048;-83
2022/05/21 04:02:21;;;;;;;7.55;2.33;;;;;;;11.90;65.01;99227.75;1730744;83;21255;-84
2022/05/21 04:04:47;;;;;;;7.20;2.83;;;;;;;11.96;65.31;99216.73;1759150;81;21024;-84
2022/05/21 04:07:14;;;;;;;4.50;2.12;;;;;;;12.06;65.36;99221.65;1755812;81;20968;-85
2022/05/21 04:09:41;;;;;;;4.80;2.35;;;;;;;12.13;65.68;99225.77;1759460;82;21065;-85
2022/05/21 04:12:08;;;;;;;5.10;2.42;;;;;;;12.26;65.19;99226.73;1755750;82;21043;-85
2022/05/21 04:14:35;;;;;;;4.55;2.40;;;;;;;12.39;64.76;99212.41;1758548;82;21019;-85
2022/05/21 04:17:05;;;;;;;5.30;2.20;;;;;;;12.51;65.05;99213.78;1740019;81;21041;-85
2022/05/21 04:19:32;;;;;;;7.72;2.70;;;;;;;12.67;63.60;99208.52;1727927;83;21069;-85
2022/05/21 04:21:59;;;;;;;4.30;2.05;;;;;;;12.79;63.49;99220.28;1728137;83;21105;-84
2022/05/21 04:24:25;;;;;;;7.03;2.20;;;;;;;12.94;62.75;99220.25;1741341;82;21126;-84
2022/05/21 04:26:53;;;;;;;9.28;2.70;;;;;;;13.06;62.29;99226.83;1761027;81;21090;-85
2022/05/21 04:29:20;;;;;;;6.50;2.00;;;;;;;13.17;61.76;99232.55;1761555;81;20995;-84
2022/05/21 04:31:46;;;;;;;6.05;2.33;;;;;;;13.26;61.71;99233.98;1765194;81;20968;-85
2022/05/21 04:34:13;;;;;;;4.97;2.35;;;;;;;13.35;61.00;99225.01;1764972;81;20976;-85
2022/05/21 04:36:40;;;;;;;5.50;2.47;;;;;;;13.42;61.03;99230.44;1764890;81;21004;-85
2022/05/21 04:39:07;;;;;;;8.30;2.47;;;;;;;13.52;60.78;99235.73;1758647;81;20950;-85
2022/05/21 04:41:35;;;;;;;4.37;2.22;;;;;;;13.61;60.03;99232.81;1749853;81;21021;-86
2022/05/21 04:44:02;;;;;;;7.35;2.02;;;;;;;13.69;59.59;99232.08;1765000;81;21061;-85
2022/05/21 04:46:32;;;;;;;5.78;2.10;;;;;;;13.71;59.40;99231.57;1765180;81;20980;-85
2022/05/21 04:48:58;;;;;;;5.42;1.80;;;;;;;13.80;59.31;99233.45;1761450;81;21023;-85
2022/05/21 04:51:25;;;;;;;9.60;2.33;;;;;;;13.92;58.95;99240.84;1761522;81;21045;-86
2022/05/21 04:53:52;;;;;;;8.43;2.20;;;;;;;14.01;58.55;99240.98;1765015;80;20981;-85
2022/05/21 04:56:19;;;;;;;5.83;2.17;;;;;;;14.06;58.60;99237.72;1761135;81;20983;-85
2022/05/21 04:58:46;;;;;;;8.90;2.33;;;;;;;14.15;58.30;99236.55;1760973;81;20992;-86
2022/05/21 05:01:13;;;;;;;4.45;2.22;;;;;;;14.24;58.37;99225.72;1764059;81;21002;-83
2022/05/21 05:03:39;;;;;;;5.47;1.92;;;;;;;14.30;58.44;99218.95;1762160;81;21003;-83
2022/05/21 05:06:06;;;;;;;4.05;2.12;;;;;;;14.38;58.43;99226.50;1760613;81;20992;-84
2022/05/21 05:08:33;;;;;;;3.65;1.90;;;;;;;14.45;57.90;99213.12;1764922;81;20954;-84
2022/05/21 05:10:59;;;;;;;5.20;2.50;;;;;;;14.56;57.78;99213.16;1765027;81;21045;-82
2022/05/21 05:13:26;;;;;;;6.40;2.20;;;;;;;14.61;57.59;99208.64;1734494;82;21093;-85
2022/05/21 05:15:52;;;;;;;9.20;2.30;;;;;;;14.69;57.14;99212.64;1764464;81;20987;-85
2022/05/21 05:18:27;;;;;;;5.40;1.70;;;;;;;14.71;57.11;99209.52;1758332;81;20987;-85
2022/05/21 05:20:52;;;;;;;9.43;2.20;;;;;;;14.79;57.38;99200.51;1751828;82;20961;-85
2022/05/21 05:23:20;;;;;;;4.03;1.95;;;;;;;14.84;57.24;99199.41;1740848;81;21035;-84
2022/05/21 05:25:46;;;;;;;5.62;2.10;;;;;;;14.94;56.89;99199.02;1739051;82;21043;-85
2022/05/21 05:28:23;;;;;;;4.72;2.20;;;;;;;15.02;56.67;99194.31;1718296;83;20980;-84
2022/05/21 05:30:49;;;;;;;7.65;2.12;;;;;;;15.08;56.78;99192.31;1720274;83;20977;-85
2022/05/21 05:33:17;;;;;;;7.53;2.02;;;;;;;15.19;56.69;99181.37;1723019;83;21067;-85
2022/05/21 05:35:44;;;;;;;5.55;1.87;;;;;;;15.31;56.30;99176.91;1712982;83;21012;-85
2022/05/21 05:38:13;;;;;;;5.40;2.10;;;;;;;15.39;54.38;99176.58;1723008;83;21019;-86
2022/05/21 05:40:45;;;;;;;3.42;1.50;;;;;;;15.48;53.99;99169.64;1719936;83;20988;-85
2022/05/21 05:43:13;;;;;;;5.15;1.80;;;;;;;15.60;53.40;99169.55;1694444;85;21090;-86
2022/05/21 05:45:40;;;;;;;4.12;1.75;;;;;;;15.74;53.53;99164.16;1705986;83;21003;-85
2022/05/21 05:48:07;;;;;;;7.55;2.00;;;;;;;15.87;53.44;99161.39;1694764;83;21007;-85
2022/05/21 05:50:34;;;;;;;6.87;1.70;;;;;;;16.01;52.81;99154.20;1723250;83;20992;-85
2022/05/21 05:53:06;;;;;;;7.45;2.00;;;;;;;16.16;52.93;99140.37;1712671;83;21002;-84
2022/05/21 05:55:34;;;;;;;5.10;1.98;;;;;;;16.30;51.66;99134.47;1713226;83;21028;-85
2022/05/21 05:59:48;;;;;;;6.53;2.17;;;;;;;16.43;51.24;99132.09;1708728;83;21005;-85
2022/05/21 06:00:30;;;;;;;4.25;1.90;;;;;;;16.55;51.38;99123.62;1719575;83;21028;-85
2022/05/21 06:02:59;;;;;;;6.97;2.15;;;;;;;16.61;51.25;99125.09;1712046;83;21578;-86
2022/05/21 06:05:32;;;;;;;7.25;1.95;;;;;;;16.60;51.57;99127.35;1705565;84;20987;-85
2022/05/21 06:08:02;;;;;;;6.72;2.20;;;;;;;16.66;51.70;99130.52;1718601;83;20991;-86
2022/05/21 06:10:36;;;;;;;3.37;1.92;;;;;;;16.75;51.91;99123.97;1701908;83;21069;-85
2022/05/21 06:13:05;;;;;;;6.22;2.27;;;;;;;16.82;51.53;99124.53;1713519;83;21023;-85
2022/05/21 06:15:33;;;;;;;4.40;2.22;;;;;;;16.92;51.43;99141.52;1723118;82;21092;-86
2022/05/21 06:18:13;;;;;;;3.72;1.87;;;;;;;16.99;51.15;99155.19;1720252;83;21008;-86
2022/05/21 06:20:41;;;;;;;7.80;2.20;;;;;;;17.07;50.92;99155.20;1690519;83;21031;-86
2022/05/21 06:23:08;;;;;;;4.62;1.85;;;;;;;17.18;49.41;99164.31;1722818;82;21352;-85
2022/05/21 06:25:35;;;;;;;4.53;1.92;;;;;;;17.27;48.77;99160.75;1710134;83;21150;-86
2022/05/21 06:28:05;;;;;;;4.70;1.90;;;;;;;17.40;48.64;99157.48;1708690;82;21109;-85
2022/05/21 06:30:34;;;;;;;5.05;1.92;;;;;;;17.54;48.28;99152.81;1725781;83;21008;-86
2022/05/21 06:33:28;;;;;;;4.83;2.08;;;;;;;17.73;47.82;99157.95;1729449;83;21042;-86
2022/05/21 06:36:11;;;;;;;5.03;2.02;;;;;;;18.00;47.36;99145.11;1729988;83;20996;-85
2022/05/21 06:38:41;;;;;;;11.00;1.90;;;;;;;18.23;45.08;99149.95;1726827;83;21761;-85
2022/05/21 06:41:08;;;;;;;6.40;1.98;;;;;;;18.45;45.53;99136.43;1730334;83;21008;-86
2022/05/21 06:43:35;;;;;;;9.13;1.90;;;;;;;18.72;46.07;99126.59;1729999;83;21048;-85
2022/05/21 06:46:03;;;;;;;4.83;1.75;;;;;;;19.02;45.01;99127.04;1726472;83;21741;-86
2022/05/21 06:48:29;;;;;;;3.60;1.50;;;;;;;19.33;44.58;99133.13;1724392;83;21024;-86
2022/05/21 06:50:57;;;;;;;5.33;1.70;;;;;;;19.62;42.53;99130.88;1728732;83;21123;-86
2022/05/21 06:53:24;;;;;;;4.85;1.90;;;;;;;19.88;42.71;99137.67;1725513;83;20978;-85
2022/05/21 06:55:51;;;;;;;6.05;1.57;;;;;;;20.04;42.98;99131.80;1720834;83;21052;-86
2022/05/21 06:58:18;;;;;;;4.10;1.67;;;;;;;20.22;42.52;99129.77;1730334;83;20980;-86
2022/05/21 07:00:46;;;;;;;6.95;1.70;;;;;;;20.34;41.18;99138.70;1717731;83;21000;-84
2022/05/21 07:03:13;;;;;;;4.33;1.60;;;;;;;20.40;40.43;99150.17;1727287;82;21335;-84
2022/05/21 07:08:28;;;;;;;5.28;1.98;;;;;;;20.68;40.82;99146.25;1725072;83;21003;-83
2022/05/21 07:10:54;;;;;;;2.83;1.55;;;;;;;20.91;40.91;99146.02;1725574;83;21024;-83
2022/05/21 07:13:23;;;;;;;8.85;1.80;;;;;;;21.13;40.16;99148.06;1728959;83;21070;-83
2022/05/21 07:15:52;;;;;;;4.95;1.90;;;;;;;21.21;40.76;99151.89;1746950;82;21086;-83
2022/05/21 07:18:21;;;;;;;4.92;1.52;;;;;;;21.34;40.14;99147.09;1748486;82;21042;-81
2022/05/21 07:20:48;;;;;;;5.62;1.75;;;;;;;21.49;40.12;99148.71;1752466;81;21137;-82
2022/05/21 07:23:15;;;;;;;5.87;1.70;;;;;;;21.55;40.33;99140.34;1756403;82;21603;-83
2022/05/21 07:25:43;;;;;;;6.37;2.10;;;;;;;21.72;39.16;99133.02;1756084;81;21038;-81
2022/05/21 07:28:10;;;;;;;6.10;1.82;;;;;;;21.87;39.15;99125.81;1749266;81;21533;-82
2022/05/21 07:30:38;;;;;;;6.00;1.90;;;;;;;21.92;38.82;99119.20;1753921;82;22012;-81
2022/05/21 07:33:07;;;;;;;5.10;1.70;;;;;;;21.94;38.20;99113.33;1750283;82;21350;-83
2022/05/21 07:35:36;;;;;;;5.45;1.95;;;;;;;22.02;38.64;99108.80;1754363;82;21062;-84
2022/05/21 07:38:02;;;;;;;4.85;2.15;;;;;;;22.12;38.34;99108.50;1754504;82;21040;-81
2022/05/21 07:40:29;;;;;;;3.77;2.00;;;;;;;22.16;38.03;99105.16;1755834;80;20995;-80
2022/05/21 07:42:55;;;;;;;5.83;2.25;;;;;;;22.24;38.54;99113.42;1755729;82;20998;-78
2022/05/21 07:45:23;;;;;;;4.60;2.10;;;;;;;22.21;38.69;99128.19;1739343;82;21029;-84
2022/05/21 07:47:50;;;;;;;6.90;2.30;;;;;;;22.01;38.63;99120.37;1755203;81;21035;-81
2022/05/21 07:50:20;;;;;;;5.35;2.52;;;;;;;21.98;38.99;99106.85;1738016;82;21040;-80
2022/05/21 07:52:46;;;;;;;4.70;2.15;;;;;;;21.90;39.25;99113.66;1751804;82;20954;-81
2022/05/21 07:55:15;;;;;;;5.78;1.98;;;;;;;21.90;39.38;99106.56;1755960;81;20986;-81
2022/05/21 07:57:41;;;;;;;8.93;2.15;;;;;;;21.91;39.56;99113.56;1753689;82;21530;-80
2022/05/21 08:00:11;;;;;;;5.20;2.60;;;;;;;21.93;38.67;99114.30;1755971;81;21028;-80
2022/05/21 08:02:41;;;;;;;6.17;2.55;;;;;;;21.99;39.08;99104.59;1755311;81;21080;-80
2022/05/21 08:05:09;;;;;;;5.45;2.17;;;;;;;22.13;39.31;99093.48;1751002;82;20984;-81
2022/05/21 08:07:36;;;;;;;9.63;2.10;;;;;;;22.18;39.39;99093.52;1755157;81;21539;-83
2022/05/21 08:10:06;;;;;;;8.30;2.00;;;;;;;22.27;38.94;99080.59;1750200;81;21015;-81
2022/05/21 08:12:33;;;;;;;11.30;1.85;;;;;;;22.44;38.27;99080.16;1755830;82;21005;-83
2022/05/21 08:14:59;;;;;;;5.72;1.87;;;;;;;22.56;38.16;99065.16;1754053;82;21067;-80
2022/05/21 08:17:27;;;;;;;6.35;1.72;;;;;;;22.65;36.46;99047.25;1751004;82;21051;-82
2022/05/21 08:19:54;;;;;;;4.22;1.87;;;;;;;22.75;36.74;99057.52;1752089;81;21112;-82
2022/05/21 08:27:52;;;;;;;9.03;1.90;;;;;;;22.99;35.71;99054.78;1742288;82;21099;-81
2022/05/21 08:30:19;;;;;;;4.03;1.98;;;;;;;23.09;33.82;99056.28;1753721;82;21047;-82
2022/05/21 08:32:45;;;;;;;5.22;1.90;;;;;;;23.12;34.74;99045.45;1738400;82;21051;-82
2022/05/21 08:35:12;;;;;;;3.37;1.90;;;;;;;23.23;34.71;99042.78;1736040;82;21466;-82
2022/05/21 08:37:39;;;;;;;4.60;1.80;;;;;;;23.31;34.35;99044.84;1738971;82;21308;-83
2022/05/21 08:40:06;;;;;;;6.20;2.15;;;;;;;23.47;34.74;99037.00;1738398;82;21529;-83
2022/05/21 08:42:40;;;;;;;4.37;2.05;;;;;;;23.69;34.47;99039.62;1738733;82;21074;-83
2022/05/21 08:45:19;;;;;;;7.75;2.40;;;;;;;23.87;34.20;99035.99;1732252;82;20986;-83
2022/05/21 08:47:51;;;;;;;6.70;1.77;;;;;;;24.13;33.98;99026.38;1736954;82;21467;-83
2022/05/21 08:50:21;;;;;;;5.47;1.70;;;;;;;24.42;34.30;99014.18;1736777;82;21035;-82
2022/05/21 08:53:05;;;;;;;3.55;1.90;;;;;;;24.54;34.17;98993.73;1715238;82;21014;-83
2022/05/21 08:55:39;;;;;;;4.45;2.02;;;;;;;24.72;33.80;98996.64;1737054;82;21068;-82
2022/05/21 08:58:40;;;;;;;5.58;1.82;;;;;;;24.88;33.57;99005.98;1737102;82;20968;-82
2022/05/21 09:01:11;;;;;;;5.30;1.85;;;;;;;25.01;33.86;98999.47;1736509;82;21031;-81
2022/05/21 09:03:38;;;;;;;6.12;1.87;;;;;;;25.09;33.15;99001.93;1723058;82;21034;-82
2022/05/21 09:06:31;;;;;;;3.67;1.80;;;;;;;25.25;33.00;98987.70;1728219;82;20991;-82
2022/05/21 09:09:24;;;;;;;5.53;1.85;;;;;;;25.50;33.28;98981.53;1735704;82;21510;-81
2022/05/21 09:12:05;;;;;;;7.67;2.37;;;;;;;25.59;32.54;98982.89;1721829;82;21079;-83
2022/05/21 09:14:42;;;;;;;3.67;1.83;;;;;;;25.82;33.13;98953.84;1738222;82;21066;-81
2022/05/21 09:17:16;;;;;;;13.58;2.65;;;;;;;25.97;32.27;98952.48;1714991;82;21063;-82
2022/05/21 09:19:59;;;;;;;4.45;2.12;;;;;;;26.12;32.33;98951.09;1718853;82;21067;-81
2022/05/21 09:22:26;;;;;;;7.12;2.15;;;;;;;26.12;31.87;98944.89;1701993;82;20988;-82
2022/05/21 09:24:57;;;;;;;5.05;1.90;;;;;;;26.18;31.55;98931.00;1736262;82;21145;-82
2022/05/21 09:27:42;;;;;;;12.50;2.12;;;;;;;26.16;30.72;98920.98;1728683;82;20988;-81
2022/05/21 09:30:25;;;;;;;6.33;2.35;;;;;;;26.19;30.21;98912.72;1719438;83;21032;-82
2022/05/21 09:33:00;;;;;;;5.17;1.80;;;;;;;26.30;30.40;98911.23;1724906;83;21036;-83
2022/05/21 09:35:32;;;;;;;4.55;2.08;;;;;;;26.37;29.33;98929.64;1719704;83;21599;-83
2022/05/21 09:38:12;;;;;;;7.22;1.90;;;;;;;26.33;29.58;98933.58;1724618;83;21019;-83
2022/05/21 09:40:40;;;;;;;7.45;2.20;;;;;;;26.36;29.20;98929.78;1714233;83;21012;-82
2022/05/21 09:46:26;;;;;;;6.35;2.10;;;;;;;26.32;29.30;98918.59;1727076;83;21063;-82
2022/05/21 09:48:58;;;;;;;7.77;2.10;;;;;;;26.40;28.67;98907.19;1724779;83;21027;-82
2022/05/21 09:51:29;;;;;;;7.08;2.25;;;;;;;26.44;28.85;98897.95;1719554;83;21360;-83
2022/05/21 09:53:57;;;;;;;5.85;2.00;;;;;;;26.58;28.14;98885.52;1724857;83;21099;-83
2022/05/21 09:56:32;;;;;;;5.58;2.10;;;;;;;26.59;28.42;98899.67;1727394;83;21045;-83
2022/05/21 09:59:15;;;;;;;20.45;4.37;;;;;;;26.74;28.92;98889.36;1724810;83;21041;-83
2022/05/21 10:01:59;;;;;;;6.78;2.15;;;;;;;26.84;28.90;98887.98;1718002;83;21005;-84
2022/05/21 10:04:55;;;;;;;6.47;2.10;;;;;;;27.01;28.38;98875.20;1724067;83;21109;-84
2022/05/21 10:11:00;;;;;;;9.23;2.10;;;;;;;27.25;28.31;98873.84;1725649;83;21083;-83
2022/05/21 10:13:40;;;;;;;5.58;2.10;;;;;;;27.34;27.89;98868.94;1695239;83;21474;-84
2022/05/21 10:16:46;;;;;;;4.12;1.90;;;;;;;27.50;28.42;98871.77;1753976;82;21059;-83
2022/05/21 10:19:33;;;;;;;6.00;2.10;;;;;;;27.63;28.53;98864.69;1757397;80;21063;-84
2022/05/21 10:22:28;;;;;;;3.80;2.10;;;;;;;27.70;28.35;98863.61;1749017;81;21008;-84
2022/05/21 10:25:12;;;;;;;3.40;1.87;;;;;;;27.75;27.64;98860.81;1753778;82;20998;-82
2022/05/21 10:27:50;;;;;;;9.53;2.05;;;;;;;27.83;28.09;98865.87;1738398;81;21009;-82
2022/05/21 10:30:42;;;;;;;10.68;2.20;;;;;;;27.83;27.69;98854.68;1760698;81;21518;-83
2022/05/21 10:33:53;;;;;;;4.08;2.10;;;;;;;27.87;27.88;98845.86;1761794;81;20993;-83
2022/05/21 10:36:27;;;;;;;9.40;2.30;;;;;;;27.96;28.06;98836.45;1739083;81;20983;-83
2022/05/21 10:39:15;;;;;;;3.70;1.92;;;;;;;28.11;27.57;98838.55;1761663;81;20982;-83
2022/05/21 10:41:54;;;;;;;5.78;2.10;;;;;;;28.14;27.85;98831.06;1760415;81;21075;-83
2022/05/21 10:44:55;;;;;;;5.78;2.52;;;;;;;28.14;27.60;98831.06;1761194;81;20957;-83
2022/05/21 10:47:46;;;;;;;8.00;2.65;;;;;;;28.23;27.98;98835.13;1758938;81;21039;-83
2022/05/21 10:50:18;;;;;;;4.22;2.25;;;;;;;28.35;27.99;98829.36;1748699;81;20958;-83
2022/05/21 10:53:36;;;;;;;5.40;2.33;;;;;;;28.46;28.05;98830.08;1758813;81;21019;-82
2022/05/21 10:56:36;;;;;;;4.60;2.30;;;;;;;28.54;27.84;98823.47;1760357;81;20983;-83
2022/05/21 10:59:33;;;;;;;7.47;2.40;;;;;;;28.59;28.11;98814.48;1758537;81;21018;-82
2022/05/21 11:02:43;;;;;;;5.30;2.10;;;;;;;28.61;28.24;98799.11;1760845;81;21486;-83
2022/05/21 11:05:37;;;;;;;5.75;2.30;;;;;;;28.71;28.41;98799.81;1753843;81;20994;-83
2022/05/21 11:08:26;;;;;;;6.15;2.05;;;;;;;28.70;28.58;98789.27;1759766;81;20969;-82
2022/05/21 11:11:08;;;;;;;6.87;2.33;;;;;;;28.85;28.80;98785.45;1745506;82;21005;-83
2022/05/21 11:13:45;;;;;;;12.15;2.60;;;;;;;28.95;28.78;98775.47;1735212;82;21012;-83
2022/05/21 11:16:17;;;;;;;7.97;2.40;;;;;;;29.12;28.63;98773.16;1729431;82;21039;-83
2022/05/21 11:18:52;;;;;;;7.22;2.60;;;;;;;29.20;28.38;98769.66;1732977;82;20945;-84
2022/05/21 11:21:41;;;;;;;5.35;2.40;;;;;;;29.26;28.52;98774.35;1737924;82;21003;-83
2022/05/21 11:24:22;;;;;;;7.55;2.70;;;;;;;29.29;28.14;98775.88;1733935;82;20975;-83
2022/05/21 11:26:57;;;;;;;7.20;2.22;;;;;;;29.43;28.50;98767.69;1736577;82;21007;-82
2022/05/21 11:29:47;;;;;;;4.28;2.20;;;;;;;29.51;28.18;98771.70;1719708;82;20985;-81
2022/05/21 11:38:09;;;;;;;6.12;2.30;;;;;;;29.67;28.34;98748.09;1715070;84;21027;-84
2022/05/21 11:47:14;;;;;;;5.85;2.47;;;;;;;29.62;29.05;98737.03;1714937;84;21143;-82
2022/05/21 11:50:00;;;;;;;12.30;8.83;;;;;;;29.63;29.27;98735.53;1697149;84;21048;-84
2022/05/21 11:52:37;;;;;;;14.33;6.58;;;;;;;29.88;28.99;98735.51;1711635;84;21598;-84
2022/05/21 11:55:18;;;;;;;9.00;3.70;;;;;;;30.09;29.08;98733.63;1714338;83;21000;-83
2022/05/21 11:58:01;;;;;;;19.82;9.13;;;;;;;30.35;28.73;98735.23;1714027;84;20976;-84
2022/05/21 12:00:33;;;;;;;7.53;3.80;;;;;;;30.48;28.59;98723.42;1703558;84;21019;-83
2022/05/21 12:03:10;;;;;;;7.37;3.22;;;;;;;30.73;28.21;98731.67;1714640;84;20975;-83
2022/05/21 12:05:46;;;;;;;7.72;2.90;;;;;;;30.93;28.08;98734.76;1710255;83;21052;-83
2022/05/21 12:08:30;;;;;;;6.30;3.72;;;;;;;31.22;28.16;98736.42;1715279;84;21005;-84
2022/05/21 12:11:04;;;;;;;4.40;2.25;;;;;;;31.56;28.03;98725.77;1713941;83;21028;-83
2022/05/21 12:13:41;;;;;;;6.87;2.45;;;;;;;31.75;27.17;98730.59;1696903;84;21005;-84
2022/05/21 12:16:24;;;;;;;6.53;2.77;;;;;;;31.81;27.13;98739.25;1707167;84;21034;-83
2022/05/21 12:18:58;;;;;;;4.90;2.62;;;;;;;31.84;27.65;98709.34;1709921;82;20953;-84
2022/05/21 12:21:36;;;;;;;4.65;2.65;;;;;;;31.38;27.33;98708.09;1707648;84;20975;-83
2022/05/21 12:24:30;;;;;;;6.47;2.20;;;;;;;31.18;28.26;98720.32;1696022;84;21050;-83
2022/05/21 12:27:22;;;;;;;5.17;2.40;;;;;;;30.96;28.61;98722.00;1704529;84;21031;-84
2022/05/21 12:30:00;;;;;;;4.42;2.75;;;;;;;30.54;29.14;98732.14;1716916;83;21037;-83
2022/05/21 12:32:29;;;;;;;4.25;2.30;;;;;;;30.12;29.94;98723.39;1715743;84;20988;-84